Time;durP1;ratioP1;P1;durP2;ratioP2;P2;SDS_P1;SDS_P2;PMS_P1;PMS_P2;Temp;Humidity;BMP_temperature;BMP_pressure;BME280_temperature;BME280_humidity;BME280_pressure;Samples;Min_cycle;Max_cycle;Signal;HPM_P1;HPM_P2
2022/09/10 00:00:58;;;;;;;43.40;24.30;;;13.80;99.90;;;;;;5036176;28;20522;-32
2022/09/10 00:03:24;;;;;;;44.97;25.10;;;13.80;99.90;;;;;;5034901;28;20045;-32
2022/09/10 00:05:50;;;;;;;41.15;24.35;;;14.00;99.90;;;;;;5035109;28;20106;-32
2022/09/10 00:08:17;;;;;;;41.33;25.08;;;13.90;99.90;;;;;;5036085;28;20052;-31
2022/09/10 00:10:46;;;;;;;47.22;24.60;;;13.90;99.90;;;;;;5034902;28;20512;-31
2022/09/10 00:13:14;;;;;;;46.25;24.52;;;13.90;99.90;;;;;;5036007;28;20060;-31
2022/09/10 00:15:49;;;;;;;44.88;25.20;;;14.40;99.90;;;;;;5035991;28;20537;-31
2022/09/10 00:18:19;;;;;;;53.28;27.90;;;14.40;99.90;;;;;;5036167;28;20045;-31
2022/09/10 00:20:50;;;;;;;45.33;25.73;;;14.30;99.90;;;;;;5034678;28;20044;-31
2022/09/10 00:23:18;;;;;;;46.70;26.38;;;14.30;99.90;;;;;;5034316;28;20045;-31
2022/09/10 00:25:48;;;;;;;51.88;28.80;;;14.10;99.90;;;;;;5035701;28;20120;-32
2022/09/10 00:28:15;;;;;;;58.72;29.10;;;14.10;99.90;;;;;;5034591;28;20053;-32
2022/09/10 00:30:45;;;;;;;56.10;30.63;;;14.60;99.90;;;;;;5035683;28;20053;-32
2022/09/10 00:33:12;;;;;;;47.55;27.70;;;14.40;99.90;;;;;;5035593;28;20060;-31
2022/09/10 00:35:39;;;;;;;52.00;28.40;;;14.50;99.90;;;;;;5035524;28;20124;-31
2022/09/10 00:38:05;;;;;;;55.25;28.85;;;14.40;99.90;;;;;;5036072;28;20045;-31
2022/09/10 00:40:32;;;;;;;53.45;28.88;;;14.50;99.90;;;;;;5034567;28;20057;-31
2022/09/10 00:42:58;;;;;;;58.85;29.73;;;14.50;99.90;;;;;;5036233;28;20132;-31
2022/09/10 00:45:30;;;;;;;54.85;29.25;;;14.70;99.90;;;;;;5035302;28;20085;-32
2022/09/10 00:48:04;;;;;;;54.97;29.73;;;14.40;99.90;;;;;;5035507;28;20056;-31
2022/09/10 00:50:33;;;;;;;49.30;28.95;;;14.70;99.90;;;;;;5035321;28;20507;-31
2022/09/10 00:53:05;;;;;;;53.33;29.83;;;14.80;99.90;;;;;;5034505;28;20041;-31
2022/09/10 00:55:33;;;;;;;49.30;27.60;;;14.50;99.90;;;;;;5034303;28;20495;-31
2022/09/10 00:58:02;;;;;;;47.85;28.45;;;14.50;99.90;;;;;;5033667;28;20488;-32
2022/09/10 01:00:28;;;;;;;58.17;30.42;;;14.40;99.90;;;;;;5035082;28;20128;-31
2022/09/10 01:02:54;;;;;;;47.10;27.75;;;14.50;99.90;;;;;;5035006;28;20525;-33
2022/09/10 01:05:21;;;;;;;57.90;30.38;;;14.80;99.90;;;;;;5034973;28;20056;-33
2022/09/10 01:07:47;;;;;;;54.63;29.75;;;14.90;99.90;;;;;;5034508;28;20101;-31
2022/09/10 01:10:27;;;;;;;49.80;29.40;;;14.90;99.90;;;;;;5034245;28;20107;-31
2022/09/10 01:13:12;;;;;;;47.90;28.73;;;14.80;99.90;;;;;;5034206;28;20407;-33
2022/09/10 01:16:09;;;;;;;49.95;28.65;;;14.80;99.90;;;;;;5034823;28;20057;-31
2022/09/10 01:19:06;;;;;;;46.25;27.92;;;14.70;99.90;;;;;;5033401;28;20131;-32
2022/09/10 01:21:47;;;;;;;58.58;31.17;;;15.00;99.90;;;;;;5034989;28;20050;-31
2022/09/10 01:24:28;;;;;;;52.55;29.30;;;14.70;99.90;;;;;;5034648;28;20057;-32
2022/09/10 01:27:28;;;;;;;53.80;28.98;;;15.00;99.90;;;;;;5034544;28;20081;-31
2022/09/10 01:30:07;;;;;;;59.42;31.35;;;14.90;99.90;;;;;;5033612;28;20132;-32
2022/09/10 01:32:36;;;;;;;58.22;32.50;;;14.60;99.90;;;;;;5033572;28;20506;-32
2022/09/10 01:35:15;;;;;;;48.38;30.30;;;14.90;99.90;;;;;;5033662;28;20128;-32
2022/09/10 01:37:50;;;;;;;58.20;30.98;;;15.00;99.90;;;;;;5033549;28;20045;-32
2022/09/10 01:40:17;;;;;;;52.45;29.52;;;14.60;99.90;;;;;;5033955;28;20400;-31
2022/09/10 01:42:44;;;;;;;54.80;31.27;;;14.80;99.90;;;;;;5034336;28;20053;-31
2022/09/10 01:45:14;;;;;;;52.70;30.73;;;14.90;99.90;;;;;;5034348;28;20045;-32
2022/09/10 01:48:06;;;;;;;58.03;32.53;;;14.90;99.90;;;;;;5034712;28;20048;-32
2022/09/10 01:50:43;;;;;;;60.83;33.45;;;14.60;99.90;;;;;;5033236;28;20510;-31
2022/09/10 01:53:38;;;;;;;54.13;32.42;;;14.80;99.90;;;;;;5034770;28;20049;-31
2022/09/10 01:56:44;;;;;;;58.42;33.72;;;14.90;99.90;;;;;;5034116;28;20084;-32
2022/09/10 01:59:23;;;;;;;59.83;33.55;;;14.70;99.90;;;;;;5011621;28;20192;-32
2022/09/10 02:01:58;;;;;;;65.95;35.40;;;14.60;99.90;;;;;;5032044;28;20095;-32
2022/09/10 02:04:25;;;;;;;58.13;35.38;;;14.80;99.90;;;;;;5034601;28;20056;-32
2022/09/10 02:06:51;;;;;;;62.75;36.10;;;14.80;99.90;;;;;;5033865;28;20068;-32
2022/09/10 02:09:18;;;;;;;63.25;36.03;;;14.80;99.90;;;;;;5032953;28;20467;-32
2022/09/10 02:11:49;;;;;;;59.08;36.13;;;14.80;99.90;;;;;;5033457;28;20041;-31
2022/09/10 02:14:16;;;;;;;62.75;34.78;;;14.80;99.90;;;;;;5033835;28;20060;-31
2022/09/10 02:16:49;;;;;;;67.88;34.88;;;14.80;99.90;;;;;;5033659;28;20045;-32
2022/09/10 02:19:15;;;;;;;65.32;36.85;;;14.80;99.90;;;;;;5034646;28;20050;-32
2022/09/10 02:21:41;;;;;;;69.55;37.13;;;14.70;99.90;;;;;;5032562;28;20042;-31
2022/09/10 02:24:10;;;;;;;68.57;39.05;;;14.60;99.90;;;;;;5032511;28;20061;-32
2022/09/10 02:26:38;;;;;;;74.68;38.25;;;14.80;99.90;;;;;;5033615;28;20510;-32
2022/09/10 02:29:05;;;;;;;69.03;37.70;;;14.80;99.90;;;;;;5032659;28;20483;-32
2022/09/10 02:31:31;;;;;;;67.68;37.47;;;14.70;99.90;;;;;;5034200;28;20041;-32
2022/09/10 02:33:57;;;;;;;70.32;39.13;;;14.70;99.90;;;;;;5032941;28;20052;-32
2022/09/10 02:36:24;;;;;;;84.95;42.83;;;14.80;99.90;;;;;;5032383;28;20045;-32
2022/09/10 02:38:55;;;;;;;72.50;38.35;;;14.80;99.90;;;;;;5033571;28;20069;-32
2022/09/10 02:41:24;;;;;;;74.25;39.13;;;14.80;99.90;;;;;;5033544;28;20042;-32
2022/09/10 02:43:51;;;;;;;66.03;38.33;;;14.60;99.90;;;;;;5033700;28;20072;-31
2022/09/10 02:46:17;;;;;;;78.30;41.25;;;14.70;99.90;;;;;;5035053;28;20095;-33
2022/09/10 02:48:42;;;;;;;70.10;38.75;;;14.60;99.90;;;;;;5036313;28;20075;-33
2022/09/10 02:51:08;;;;;;;77.45;39.53;;;14.70;99.90;;;;;;5036549;28;20052;-32
2022/09/10 02:53:34;;;;;;;67.68;38.17;;;14.60;99.90;;;;;;5037458;28;20045;-32
2022/09/10 02:56:01;;;;;;;67.00;38.25;;;14.70;99.90;;;;;;5036486;28;20098;-32
2022/09/10 02:58:30;;;;;;;76.05;39.05;;;14.70;99.90;;;;;;5020506;28;20118;-32
2022/09/10 03:01:05;;;;;;;58.00;35.47;;;14.60;99.90;;;;;;5003584;28;20114;-32
2022/09/10 03:03:32;;;;;;;62.53;38.13;;;14.70;99.90;;;;;;5036644;28;20045;-31
2022/09/10 03:05:57;;;;;;;59.80;36.53;;;14.60;99.90;;;;;;5037421;28;20407;-32
2022/09/10 03:08:23;;;;;;;63.58;39.08;;;14.50;99.90;;;;;;5037268;28;20053;-32
2022/09/10 03:10:49;;;;;;;73.63;40.50;;;14.50;99.90;;;;;;5037186;28;20386;-32
2022/09/10 03:13:14;;;;;;;66.45;38.40;;;14.70;99.90;;;;;;5037105;28;20092;-32
2022/09/10 03:15:41;;;;;;;61.80;38.20;;;14.60;99.90;;;;;;5037332;28;20052;-32
2022/09/10 03:18:08;;;;;;;56.67;37.22;;;14.60;99.90;;;;;;5037017;28;20133;-33
2022/09/10 03:20:35;;;;;;;59.22;37.97;;;14.60;99.90;;;;;;5037009;28;20486;-32
2022/09/10 03:23:02;;;;;;;56.22;37.55;;;14.50;99.90;;;;;;5036987;28;20088;-32
2022/09/10 03:25:28;;;;;;;57.53;38.65;;;14.60;99.90;;;;;;5035706;28;20053;-32
2022/09/10 03:27:54;;;;;;;59.33;38.92;;;14.50;99.90;;;;;;5037011;28;20060;-33
2022/09/10 03:30:20;;;;;;;65.68;39.05;;;14.50;99.90;;;;;;5036777;28;20487;-32
2022/09/10 03:32:47;;;;;;;59.92;36.72;;;14.50;99.90;;;;;;5036708;28;20079;-32
2022/09/10 03:35:14;;;;;;;60.28;38.17;;;14.50;99.90;;;;;;5036572;28;20128;-32
2022/09/10 03:37:40;;;;;;;68.15;38.97;;;14.60;99.90;;;;;;5036670;28;20049;-33
2022/09/10 03:40:07;;;;;;;63.90;38.80;;;14.50;99.90;;;;;;5035266;28;20111;-32
2022/09/10 03:42:32;;;;;;;70.82;40.85;;;14.50;99.90;;;;;;5036924;28;20131;-32
2022/09/10 03:44:58;;;;;;;71.60;41.47;;;14.60;99.90;;;;;;5036133;28;20499;-34
2022/09/10 03:47:24;;;;;;;69.45;40.95;;;14.60;99.90;;;;;;5036414;28;20095;-33
2022/09/10 03:49:50;;;;;;;73.18;41.42;;;14.60;99.90;;;;;;5036427;28;20050;-32
2022/09/10 03:52:16;;;;;;;72.43;41.25;;;14.50;99.90;;;;;;5036408;28;20057;-32
2022/09/10 03:54:42;;;;;;;66.20;38.33;;;14.50;99.90;;;;;;5036356;28;20050;-32
2022/09/10 03:57:08;;;;;;;68.47;39.45;;;14.40;99.90;;;;;;5035556;28;20054;-32
2022/09/10 03:59:39;;;;;;;67.40;39.47;;;14.50;99.90;;;;;;5035594;28;20053;-32
2022/09/10 04:02:08;;;;;;;72.75;39.92;;;14.40;99.90;;;;;;5035312;28;20057;-33
2022/09/10 04:04:36;;;;;;;71.18;38.17;;;14.30;99.90;;;;;;5036736;28;20085;-32
2022/09/10 04:07:02;;;;;;;75.43;40.65;;;14.40;99.90;;;;;;5036076;28;20041;-33
2022/09/10 04:09:28;;;;;;;69.05;40.08;;;14.30;99.90;;;;;;5036109;28;20096;-32
2022/09/10 04:11:54;;;;;;;78.28;41.30;;;14.20;99.90;;;;;;5035750;28;20045;-33
2022/09/10 04:14:19;;;;;;;74.30;41.30;;;14.20;99.90;;;;;;5035360;28;20045;-33
2022/09/10 04:16:45;;;;;;;85.35;42.28;;;14.30;99.90;;;;;;5035921;28;20068;-32
2022/09/10 04:19:11;;;;;;;83.80;43.75;;;14.20;99.90;;;;;;5035893;28;20546;-33
2022/09/10 04:21:37;;;;;;;93.30;44.58;;;14.10;99.90;;;;;;5019155;28;20076;-32
2022/09/10 04:24:03;;;;;;;83.53;43.20;;;14.30;99.90;;;;;;5035400;28;20475;-33
2022/09/10 04:26:28;;;;;;;81.43;41.90;;;14.20;99.90;;;;;;5051602;28;20049;-32
2022/09/10 04:28:55;;;;;;;84.45;43.35;;;14.30;99.90;;;;;;5035707;28;20124;-33
2022/09/10 04:31:20;;;;;;;88.85;47.03;;;14.30;99.90;;;;;;5036231;28;20546;-32
2022/09/10 04:33:46;;;;;;;88.85;44.10;;;14.10;99.90;;;;;;5035913;28;20164;-33
2022/09/10 04:36:13;;;;;;;85.85;43.70;;;14.30;99.90;;;;;;5035633;28;20041;-33
2022/09/10 04:38:40;;;;;;;84.93;44.25;;;14.10;99.90;;;;;;5034191;28;20064;-33
2022/09/10 04:41:06;;;;;;;93.95;44.97;;;14.30;99.90;;;;;;5018034;28;20053;-32
2022/09/10 04:43:32;;;;;;;103.20;46.55;;;14.20;99.90;;;;;;5035451;28;20049;-33
2022/09/10 04:45:58;;;;;;;94.07;44.70;;;14.30;99.90;;;;;;5035293;28;20038;-32
2022/09/10 04:48:24;;;;;;;96.93;46.05;;;14.30;99.90;;;;;;5034074;28;20404;-32
2022/09/10 04:50:50;;;;;;;104.70;47.42;;;14.30;99.90;;;;;;5034893;28;20084;-34
2022/09/10 04:53:17;;;;;;;106.45;49.58;;;14.40;99.90;;;;;;5035223;28;20041;-32
2022/09/10 04:55:44;;;;;;;99.47;48.00;;;14.40;99.90;;;;;;5035194;28;20052;-33
2022/09/10 04:58:10;;;;;;;97.47;46.55;;;14.30;99.90;;;;;;5036003;28;20124;-33
2022/09/10 05:00:38;;;;;;;92.35;45.20;;;14.40;99.90;;;;;;5034150;28;20045;-32
2022/09/10 05:03:04;;;;;;;111.88;49.72;;;14.30;99.90;;;;;;5035119;28;20056;-33
2022/09/10 05:05:30;;;;;;;108.05;47.85;;;14.30;99.90;;;;;;5034055;28;20535;-33
2022/09/10 05:07:56;;;;;;;93.35;45.15;;;14.40;99.90;;;;;;5035064;28;20131;-32
2022/09/10 05:10:22;;;;;;;99.07;45.35;;;14.30;99.90;;;;;;5034085;28;20057;-33
2022/09/10 05:12:48;;;;;;;89.90;45.33;;;14.30;99.90;;;;;;5034500;28;20041;-32
2022/09/10 05:15:14;;;;;;;93.50;45.13;;;14.50;99.90;;;;;;5035355;28;20049;-32
2022/09/10 05:17:39;;;;;;;101.97;46.53;;;14.40;99.90;;;;;;5034779;28;20037;-33
2022/09/10 05:20:06;;;;;;;82.10;43.97;;;14.50;99.90;;;;;;5034438;28;20092;-32
2022/09/10 05:22:34;;;;;;;86.22;44.35;;;14.60;99.90;;;;;;5034703;28;20057;-32
2022/09/10 05:25:01;;;;;;;88.82;44.10;;;14.60;99.90;;;;;;5034389;28;20492;-32
2022/09/10 05:27:26;;;;;;;82.20;42.25;;;14.60;99.90;;;;;;5034507;28;20060;-32
2022/09/10 05:29:52;;;;;;;84.75;43.00;;;14.60;99.90;;;;;;5033027;28;20046;-32
2022/09/10 05:32:18;;;;;;;88.15;44.63;;;14.60;99.90;;;;;;5017937;28;20100;-33
2022/09/10 05:34:47;;;;;;;78.43;41.20;;;14.70;99.90;;;;;;5032921;28;20053;-32
2022/09/10 05:37:17;;;;;;;86.38;43.85;;;14.60;99.90;;;;;;5034433;28;20041;-33
2022/09/10 05:39:45;;;;;;;88.38;42.08;;;14.80;99.90;;;;;;5033672;28;20053;-33
2022/09/10 05:42:10;;;;;;;89.90;44.13;;;14.90;99.90;;;;;;5033186;28;20053;-32
2022/09/10 05:44:36;;;;;;;81.00;43.25;;;14.90;99.90;;;;;;5034781;28;20048;-32
2022/09/10 05:47:02;;;;;;;76.80;44.05;;;14.80;99.90;;;;;;5033114;28;20395;-32
2022/09/10 05:49:29;;;;;;;75.20;40.92;;;15.00;99.90;;;;;;5034215;28;20049;-32
2022/09/10 05:51:56;;;;;;;74.10;39.72;;;14.90;99.90;;;;;;5033216;28;20106;-33
2022/09/10 05:54:22;;;;;;;71.90;41.10;;;15.00;99.90;;;;;;5034009;28;20045;-34
2022/09/10 05:56:48;;;;;;;56.58;35.05;;;15.10;99.90;;;;;;5034072;28;20203;-33
2022/09/10 05:59:13;;;;;;;63.40;36.83;;;15.10;99.90;;;;;;5034287;28;20052;-33
2022/09/10 06:01:39;;;;;;;61.17;35.60;;;15.10;99.90;;;;;;5034059;28;20124;-34
2022/09/10 06:04:05;;;;;;;65.22;39.78;;;15.10;99.90;;;;;;5034290;28;20376;-33
2022/09/10 06:06:31;;;;;;;62.53;38.08;;;15.10;99.90;;;;;;5033552;28;20045;-33
2022/09/10 06:08:56;;;;;;;55.80;34.78;;;15.20;99.90;;;;;;5032966;28;20056;-33
2022/09/10 06:11:22;;;;;;;58.40;35.58;;;15.20;99.90;;;;;;5033887;28;20056;-33
2022/09/10 06:13:49;;;;;;;54.03;35.35;;;15.30;99.90;;;;;;5033252;28;20049;-33
2022/09/10 06:16:15;;;;;;;52.58;34.08;;;15.40;99.90;;;;;;5033664;28;20049;-33
2022/09/10 06:18:41;;;;;;;48.08;32.70;;;15.40;99.90;;;;;;5033831;28;20057;-33
2022/09/10 06:21:16;;;;;;;44.42;31.85;;;15.50;99.90;;;;;;5033529;28;20068;-32
2022/09/10 06:23:43;;;;;;;47.70;32.47;;;15.50;99.90;;;;;;5032566;28;20045;-33
2022/09/10 06:26:15;;;;;;;45.50;31.35;;;15.60;99.90;;;;;;5033612;28;20049;-33
2022/09/10 06:28:42;;;;;;;37.47;28.33;;;15.60;99.90;;;;;;5034034;28;20134;-33
2022/09/10 06:31:10;;;;;;;40.08;29.92;;;15.60;99.90;;;;;;5033651;28;20041;-32
2022/09/10 06:33:36;;;;;;;39.88;28.33;;;15.70;99.90;;;;;;5017042;28;20053;-34
2022/09/10 06:36:02;;;;;;;37.85;26.55;;;15.70;99.90;;;;;;5034428;28;20099;-33
2022/09/10 06:38:32;;;;;;;48.42;30.33;;;15.70;99.90;;;;;;5032257;28;20077;-33
2022/09/10 06:41:00;;;;;;;39.50;28.05;;;15.70;99.90;;;;;;5032710;28;20136;-32
2022/09/10 06:43:27;;;;;;;38.88;27.10;;;15.80;99.90;;;;;;5033469;28;20053;-33
2022/09/10 06:45:53;;;;;;;34.10;25.98;;;15.70;99.90;;;;;;5032983;28;20499;-33
2022/09/10 06:48:26;;;;;;;34.25;27.33;;;15.80;99.90;;;;;;5033765;28;20432;-32
2022/09/10 06:50:57;;;;;;;33.92;24.90;;;15.90;99.90;;;;;;5032917;28;20045;-33
2022/09/10 06:53:26;;;;;;;33.95;24.83;;;15.90;99.90;;;;;;5032218;28;20053;-33
2022/09/10 06:55:52;;;;;;;33.92;24.85;;;15.90;99.90;;;;;;5033915;28;20107;-33
2022/09/10 06:58:19;;;;;;;33.28;26.02;;;15.90;99.90;;;;;;5033306;28;20057;-33
2022/09/10 07:00:46;;;;;;;36.08;26.73;;;16.00;99.90;;;;;;5032147;28;20054;-33
2022/09/10 07:03:14;;;;;;;37.03;23.48;;;16.00;99.90;;;;;;5033378;28;20111;-33
2022/09/10 07:05:40;;;;;;;37.08;26.65;;;16.10;99.90;;;;;;5033360;28;20049;-34
2022/09/10 07:08:06;;;;;;;37.08;25.80;;;16.10;99.90;;;;;;5032565;28;20103;-34
2022/09/10 07:10:32;;;;;;;33.95;25.73;;;16.10;99.90;;;;;;5032313;28;20132;-33
2022/09/10 07:13:00;;;;;;;36.97;25.70;;;16.10;99.90;;;;;;5033271;28;20487;-33
2022/09/10 07:15:27;;;;;;;35.80;24.50;;;16.10;99.90;;;;;;5033221;28;20064;-32
2022/09/10 07:17:53;;;;;;;35.33;25.35;;;16.20;99.90;;;;;;5033233;28;20052;-33
2022/09/10 07:20:21;;;;;;;37.47;26.23;;;16.10;98.50;;;;;;5033443;28;20438;-33
2022/09/10 07:22:47;;;;;;;37.50;27.38;;;16.20;72.90;;;;;;5033548;28;20053;-33
2022/09/10 07:25:13;;;;;;;35.85;24.58;;;16.30;66.00;;;;;;5031959;28;20421;-33
2022/09/10 07:27:38;;;;;;;33.28;24.52;;;16.40;50.00;;;;;;5033607;28;20468;-33
2022/09/10 07:30:05;;;;;;;37.35;27.13;;;16.50;22.30;;;;;;5031906;28;20045;-34
2022/09/10 07:32:34;;;;;;;30.73;24.73;;;16.70;11.40;;;;;;5050191;28;20046;-33
2022/09/10 07:35:00;;;;;;;31.00;24.30;;;16.80;1.00;;;;;;5036475;28;20503;-33
2022/09/10 07:37:26;;;;;;;31.45;23.25;;;17.10;1.00;;;;;;5036682;28;20053;-34
2022/09/10 07:39:51;;;;;;;32.08;22.77;;;17.20;1.00;;;;;;5037240;28;20107;-34
2022/09/10 07:42:17;;;;;;;34.72;24.63;;;17.30;1.00;;;;;;5036918;28;20459;-34
2022/09/10 07:44:43;;;;;;;29.90;23.33;;;17.30;1.00;;;;;;5036184;28;20380;-33
2022/09/10 07:47:09;;;;;;;28.42;21.67;;;17.20;1.00;;;;;;5035358;28;20050;-33
2022/09/10 07:49:34;;;;;;;29.13;20.90;;;17.20;1.00;;;;;;5035866;28;20049;-34
2022/09/10 07:52:00;;;;;;;34.55;24.25;;;17.10;99.90;;;;;;5035282;28;20172;-34
2022/09/10 07:54:27;;;;;;;29.55;21.52;;;17.10;99.90;;;;;;5035959;28;20411;-34
2022/09/10 07:56:53;;;;;;;29.05;22.48;;;17.10;99.90;;;;;;5036390;28;20056;-34
2022/09/10 07:59:18;;;;;;;26.58;21.40;;;17.10;99.90;;;;;;5035614;28;20045;-35
2022/09/10 08:01:44;;;;;;;29.58;22.40;;;17.20;99.90;;;;;;5035911;28;20049;-36
2022/09/10 08:04:10;;;;;;;27.83;20.52;;;17.20;99.90;;;;;;5035053;28;20049;-37
2022/09/10 08:06:36;;;;;;;29.98;23.05;;;17.30;99.90;;;;;;5036065;28;20544;-34
2022/09/10 08:09:05;;;;;;;33.60;21.25;;;17.50;99.90;;;;;;5035190;28;20409;-35
2022/09/10 08:11:33;;;;;;;24.15;19.98;;;17.80;99.90;;;;;;5036378;28;20099;-34
2022/09/10 08:13:59;;;;;;;29.25;21.65;;;18.00;99.90;;;;;;5035631;28;20053;-37
2022/09/10 08:16:26;;;;;;;25.92;19.50;;;18.20;99.90;;;;;;5034734;28;20069;-36
2022/09/10 08:18:56;;;;;;;24.40;19.90;;;18.40;99.90;;;;;;5034986;28;20060;-36
2022/09/10 08:21:21;;;;;;;26.92;19.45;;;18.50;93.00;;;;;;5034933;28;20503;-36
2022/09/10 08:23:53;;;;;;;24.65;18.40;;;18.60;62.70;;;;;;5035834;28;20049;-38
2022/09/10 08:26:22;;;;;;;28.27;19.13;;;18.60;1.00;;;;;;5035343;28;20507;-38
2022/09/10 08:28:49;;;;;;;26.88;19.77;;;18.70;99.90;;;;;;5035767;28;20411;-39
2022/09/10 08:31:15;;;;;;;26.08;18.73;;;18.70;99.90;;;;;;5036264;28;20392;-38
2022/09/10 08:33:46;;;;;;;22.15;17.55;;;18.60;99.90;;;;;;5035713;28;20099;-39
2022/09/10 08:36:13;;;;;;;23.40;18.52;;;18.60;99.90;;;;;;5034415;28;20093;-39
2022/09/10 08:38:40;;;;;;;26.40;17.17;;;18.50;99.90;;;;;;5035551;28;20061;-39
2022/09/10 08:41:31;;;;;;;24.30;18.23;;;18.40;91.20;;;;;;5036336;28;20136;-40
2022/09/10 08:44:06;;;;;;;23.52;17.13;;;18.40;18.20;;;;;;5035281;28;20085;-38
2022/09/10 08:47:06;;;;;;;25.60;17.63;;;18.40;99.90;;;;;;5035466;28;20098;-39
2022/09/10 08:49:52;;;;;;;23.30;17.80;;;18.40;99.90;;;;;;5026611;28;20442;-39
2022/09/10 08:52:28;;;;;;;25.55;16.92;;;18.50;99.90;;;;;;5035958;28;20053;-39
2022/09/10 08:54:57;;;;;;;20.23;15.75;;;18.60;99.90;;;;;;5034144;28;20037;-40
2022/09/10 08:57:30;;;;;;;22.40;17.40;;;18.60;1.00;;;;;;5035464;28;20037;-40
2022/09/10 08:59:59;;;;;;;25.40;19.05;;;18.50;1.00;;;;;;5034623;28;20465;-40
2022/09/10 09:02:31;;;;;;;23.20;17.17;;;18.50;1.00;;;;;;5033952;28;20095;-40
2022/09/10 09:05:04;;;;;;;21.10;16.42;;;18.50;40.10;;;;;;5035032;28;20128;-41
2022/09/10 09:07:39;;;;;;;18.45;14.15;;;18.60;27.10;;;;;;5035020;28;20164;-40
2022/09/10 09:10:41;;;;;;;17.98;14.10;;;18.50;1.00;;;;;;5035658;28;20050;-41
2022/09/10 09:13:32;;;;;;;16.15;13.45;;;18.60;99.90;;;;;;5033646;28;20065;-41
2022/09/10 09:16:09;;;;;;;17.30;13.48;;;18.70;1.00;;;;;;5035432;28;20114;-40
2022/09/10 09:19:05;;;;;;;17.75;12.63;;;18.80;99.90;;;;;;5034805;28;20377;-41
2022/09/10 09:21:38;;;;;;;14.23;10.38;;;18.80;99.90;;;;;;5035072;28;20049;-40
2022/09/10 09:24:15;;;;;;;13.93;11.05;;;18.90;99.90;;;;;;5034821;28;20068;-41
2022/09/10 09:26:45;;;;;;;12.82;9.75;;;18.90;99.90;;;;;;5018040;28;20050;-41
2022/09/10 09:29:13;;;;;;;15.05;10.88;;;19.00;99.90;;;;;;5034614;28;20064;-41
2022/09/10 09:31:47;;;;;;;11.43;9.43;;;19.00;87.50;;;;;;5034599;28;20464;-41
2022/09/10 09:34:24;;;;;;;14.27;9.88;;;19.10;1.00;;;;;;5033426;28;20041;-41
2022/09/10 09:36:55;;;;;;;15.00;10.02;;;19.10;1.00;;;;;;5034464;28;20045;-41
2022/09/10 09:39:30;;;;;;;12.35;9.63;;;19.10;1.00;;;;;;5034280;28;20099;-42
2022/09/10 09:42:20;;;;;;;14.98;9.77;;;19.10;1.00;;;;;;5034865;28;20045;-42
2022/09/10 09:44:58;;;;;;;13.85;9.23;;;19.00;1.00;;;;;;5034695;28;20176;-41
2022/09/10 09:47:23;;;;;;;16.60;12.02;;;19.00;1.00;;;;;;5034270;28;20120;-42
2022/09/10 09:49:49;;;;;;;15.43;11.60;;;18.90;1.00;;;;;;5033943;28;20128;-41
2022/09/10 09:52:21;;;;;;;15.82;10.82;;;18.90;1.00;;;;;;5034454;28;20046;-41
2022/09/10 09:54:57;;;;;;;19.42;13.20;;;18.90;1.00;;;;;;5033660;28;20049;-41
2022/09/10 09:57:23;;;;;;;12.77;10.50;;;18.90;1.00;;;;;;5034737;28;20438;-42
2022/09/10 09:59:50;;;;;;;16.23;12.13;;;18.90;1.00;;;;;;5034377;28;20077;-42
2022/09/10 10:02:20;;;;;;;16.50;11.60;;;18.90;1.00;;;;;;5034553;28;20443;-42
2022/09/10 10:05:22;;;;;;;14.30;11.18;;;18.90;1.00;;;;;;5034027;28;20064;-41
2022/09/10 10:07:49;;;;;;;14.33;11.50;;;19.00;1.00;;;;;;5030047;28;20488;-42
2022/09/10 10:10:26;;;;;;;15.98;11.27;;;19.00;1.00;;;;;;5034484;28;20399;-41
2022/09/10 10:12:53;;;;;;;17.38;11.57;;;19.10;1.00;;;;;;5034197;28;20053;-41
2022/09/10 10:15:41;;;;;;;15.90;11.80;;;19.10;1.00;;;;;;5032931;28;20395;-42
2022/09/10 10:18:22;;;;;;;16.77;11.07;;;19.20;1.00;;;;;;5033782;28;20041;-42
2022/09/10 10:21:02;;;;;;;15.57;12.27;;;19.30;1.00;;;;;;5033809;28;20071;-42
2022/09/10 10:23:36;;;;;;;17.52;12.88;;;19.40;1.00;;;;;;5034369;28;20053;-42
2022/09/10 10:26:38;;;;;;;20.50;12.80;;;19.50;1.00;;;;;;5034268;28;20080;-42
2022/09/10 10:29:20;;;;;;;19.75;12.68;;;19.60;99.90;;;;;;5011675;28;20054;-42
2022/09/10 10:31:47;;;;;;;16.67;12.02;;;19.70;99.90;;;;;;5029154;28;20061;-42
2022/09/10 10:34:32;;;;;;;14.32;11.90;;;19.70;99.90;;;;;;5033674;28;20060;-42
2022/09/10 10:37:03;;;;;;;15.98;12.52;;;20.00;54.80;;;;;;5033574;28;20050;-41
2022/09/10 10:39:59;;;;;;;15.60;11.82;;;20.10;99.90;;;;;;5033441;28;20159;-42
2022/09/10 10:42:35;;;;;;;18.27;12.60;;;20.30;1.00;;;;;;5033844;28;20514;-42
2022/09/10 10:45:23;;;;;;;17.08;12.85;;;20.30;1.00;;;;;;5033926;28;20065;-42
2022/09/10 10:48:16;;;;;;;16.88;12.75;;;20.40;1.00;;;;;;5033454;28;20131;-42
2022/09/10 10:50:48;;;;;;;13.57;11.52;;;20.40;1.00;;;;;;5034123;28;20548;-42
2022/09/10 10:53:34;;;;;;;18.07;12.27;;;20.40;44.20;;;;;;5033179;28;20124;-42
2022/09/10 10:56:23;;;;;;;15.65;13.00;;;20.20;1.00;;;;;;5034116;28;20181;-41
2022/09/10 10:59:23;;;;;;;16.73;12.65;;;20.30;25.60;;;;;;5033733;28;20049;-42
2022/09/10 11:02:18;;;;;;;18.13;12.60;;;20.30;1.00;;;;;;5033956;28;20056;-43
2022/09/10 11:04:51;;;;;;;15.77;12.98;;;20.50;1.00;;;;;;5028660;28;20049;-42
2022/09/10 11:07:34;;;;;;;19.92;12.73;;;20.70;1.00;;;;;;5034827;28;20085;-42
2022/09/10 11:10:20;;;;;;;16.38;12.07;;;20.80;1.00;;;;;;5038105;28;20108;-42
2022/09/10 11:12:50;;;;;;;17.02;11.68;;;20.90;1.00;;;;;;5036777;28;20383;-43
2022/09/10 11:15:34;;;;;;;14.63;10.48;;;21.00;1.00;;;;;;5036905;28;20551;-42
2022/09/10 11:18:11;;;;;;;13.65;11.13;;;21.10;99.90;;;;;;5037667;28;20529;-42
2022/09/10 11:20:43;;;;;;;14.35;10.15;;;21.20;99.90;;;;;;5037108;28;20050;-43
2022/09/10 11:23:21;;;;;;;14.27;11.05;;;21.20;99.90;;;;;;5037077;28;20049;-43
2022/09/10 11:26:14;;;;;;;13.93;10.07;;;21.10;99.90;;;;;;5036766;28;20537;-43
2022/09/10 11:28:43;;;;;;;13.60;10.35;;;21.10;99.90;;;;;;5037250;28;20046;-43
2022/09/10 11:31:23;;;;;;;15.02;10.95;;;21.00;99.90;;;;;;5036825;28;20137;-43
2022/09/10 11:34:04;;;;;;;12.32;9.90;;;21.10;99.90;;;;;;5037141;28;20368;-42
2022/09/10 11:36:56;;;;;;;13.30;9.68;;;21.30;99.90;;;;;;5036792;28;20132;-43
2022/09/10 11:39:37;;;;;;;11.23;10.00;;;21.50;65.10;;;;;;5036891;28;20057;-43
2022/09/10 11:42:16;;;;;;;13.18;9.63;;;21.80;1.00;;;;;;5036722;28;20058;-42
2022/09/10 11:44:45;;;;;;;13.93;9.65;;;22.70;1.00;;;;;;5036566;28;20049;-42
2022/09/10 11:47:21;;;;;;;11.45;8.48;;;23.40;99.90;;;;;;5036500;28;20132;-44
2022/09/10 11:50:21;;;;;;;8.98;7.47;;;23.50;99.90;;;;;;5036575;28;20057;-43
2022/09/10 11:52:48;;;;;;;11.75;9.40;;;23.30;9.40;;;;;;5036339;28;20057;-44
2022/09/10 11:55:16;;;;;;;12.02;8.52;;;23.30;99.90;;;;;;5036960;28;20041;-43
2022/09/10 11:58:18;;;;;;;11.07;8.77;;;23.20;99.90;;;;;;5036418;28;20049;-43
2022/09/10 12:01:04;;;;;;;11.73;8.25;;;23.20;1.00;;;;;;5037148;28;20391;-43
2022/09/10 12:03:38;;;;;;;10.90;8.45;;;22.90;1.00;;;;;;5036352;28;20052;-43
2022/09/10 12:06:21;;;;;;;10.00;8.48;;;22.60;99.90;;;;;;5036111;28;20049;-43
2022/09/10 12:08:50;;;;;;;;;;;22.50;99.90;;;;;;5036913;28;20089;-43
2022/09/10 12:11:39;;;;;;;14.73;9.07;;;22.30;1.00;;;;;;5036139;28;19921;-43
2022/09/10 12:14:07;;;;;;;11.32;9.45;;;22.30;99.90;;;;;;5036422;28;20081;-43
2022/09/10 12:16:53;;;;;;;12.13;8.85;;;22.30;99.90;;;;;;5036279;28;20051;-44
2022/09/10 12:19:30;;;;;;;7.95;7.15;;;22.40;99.90;;;;;;5035378;28;20488;-44
2022/09/10 12:22:19;;;;;;;10.65;6.95;;;22.30;99.90;;;;;;5036368;28;20068;-43
2022/09/10 12:24:55;;;;;;;9.48;6.53;;;22.20;1.00;;;;;;5035884;28;20053;-44
2022/09/10 12:27:42;;;;;;;9.10;6.90;;;22.20;99.90;;;;;;5035696;28;20041;-43
2022/09/10 12:30:26;;;;;;;11.40;6.65;;;22.20;99.90;;;;;;5036210;28;20046;-43
2022/09/10 12:32:58;;;;;;;8.82;5.82;;;22.60;99.90;;;;;;5034555;28;20060;-43
2022/09/10 12:35:36;;;;;;;6.30;5.33;;;23.10;93.80;;;;;;5035654;28;20091;-44
2022/09/10 12:38:39;;;;;;;6.72;5.88;;;23.50;1.00;;;;;;5035780;28;20124;-43
2022/09/10 12:41:21;;;;;;;7.30;5.13;;;24.30;1.00;;;;;;5034164;28;20102;-44
2022/09/10 12:43:47;;;;;;;8.35;6.22;;;25.10;1.00;;;;;;5035727;28;20049;-44
2022/09/10 12:46:18;;;;;;;7.25;5.78;;;25.20;99.90;;;;;;5035171;28;20514;-44
2022/09/10 12:48:49;;;;;;;8.13;5.85;;;25.10;56.60;;;;;;5035348;28;20511;-43
2022/09/10 12:51:18;;;;;;;7.37;4.83;;;24.90;1.00;;;;;;5035617;28;20472;-44
2022/09/10 12:54:04;;;;;;;9.48;6.38;;;25.60;16.20;;;;;;5035786;28;20045;-44